Houston, Texas
Current Conditions -  °F | °C
As of 12:55 PM on Friday 21 Nov 2014 (Local Time) from KMCJ Reporting Station
Overcast Overcast  
Wind Chill: 66°   Ceiling: 400
Heat Index: 66°   Visibility: NA
Dew Point: 64°   Wind: 10mph
Humidity: 94%   Direction: 100°E
Pressure: 30.09"   Gusts: 16mph
Location:  29.76°N, 95.37°W
Report Text: KMCJ 211855Z AUTO 10009G14KT 010V020 OVC004 19/18 A3009 RMK AO1
Loading
Personal Weather Stations






























Interactive Weather Map New forecast layout! Learn more

10-Day Weather Forecast

Advertisements
Track Severe Weather on mobile